createdAt,value
2022-12-26T00:01:10.317Z,2.70
2022-12-26T00:03:38.651Z,2.90
2022-12-26T00:06:13.209Z,3.20
2022-12-26T00:08:42.243Z,2.90
2022-12-26T00:11:10.562Z,3.60
2022-12-26T00:13:41.524Z,3.40
2022-12-26T00:16:11.492Z,2.70
2022-12-26T00:18:39.693Z,2.77
2022-12-26T00:21:08.107Z,3.10
2022-12-26T00:23:36.782Z,2.43
2022-12-26T00:26:07.682Z,2.87
2022-12-26T00:28:35.518Z,2.97
2022-12-26T00:31:05.325Z,2.90
2022-12-26T00:33:33.059Z,2.97
2022-12-26T00:36:02.541Z,3.37
2022-12-26T00:38:30.684Z,3.00
2022-12-26T00:40:58.524Z,3.13
2022-12-26T00:43:27.482Z,2.57
2022-12-26T00:45:56.594Z,3.00
2022-12-26T00:48:24.446Z,2.80
2022-12-26T00:50:52.289Z,3.23
2022-12-26T00:53:20.449Z,4.20
2022-12-26T00:55:48.593Z,4.50
2022-12-26T00:58:16.314Z,3.30
2022-12-26T01:00:45.445Z,4.03
2022-12-26T01:03:13.990Z,4.73
2022-12-26T01:05:43.012Z,4.07
2022-12-26T01:08:21.492Z,3.63
2022-12-26T01:10:52.731Z,3.70
2022-12-26T01:13:20.556Z,4.20
2022-12-26T01:15:51.210Z,4.00
2022-12-26T01:18:19.596Z,3.73
2022-12-26T01:20:47.505Z,3.10
2022-12-26T01:23:15.837Z,3.10
2022-12-26T01:26:18.383Z,3.50
2022-12-26T01:28:31.618Z,3.22
2022-12-26T01:31:03.634Z,2.90
2022-12-26T01:33:31.699Z,3.03
2022-12-26T01:35:59.608Z,2.83
2022-12-26T01:38:27.518Z,3.33
2022-12-26T01:41:15.564Z,3.50
2022-12-26T01:43:58.797Z,3.63
2022-12-26T01:46:34.807Z,2.92
2022-12-26T01:49:08.567Z,3.13
2022-12-26T01:51:41.027Z,2.73
2022-12-26T01:54:37.969Z,2.83
2022-12-26T01:57:01.290Z,2.55
2022-12-26T01:59:33.302Z,2.80
2022-12-26T02:02:02.995Z,2.80
2022-12-26T02:04:53.501Z,2.27
2022-12-26T02:07:21.412Z,3.00
2022-12-26T02:09:49.198Z,2.80
2022-12-26T02:12:35.176Z,2.80
2022-12-26T02:15:07.700Z,2.42
2022-12-26T02:17:38.157Z,2.70
2022-12-26T02:20:16.657Z,2.15
2022-12-26T02:23:20.243Z,3.30
2022-12-26T02:26:18.313Z,2.50
2022-12-26T02:29:25.222Z,2.30
2022-12-26T02:32:04.852Z,3.17
2022-12-26T02:34:44.701Z,2.40
2022-12-26T02:37:24.780Z,2.60
2022-12-26T02:40:07.383Z,2.50
2022-12-26T02:42:49.248Z,2.27
2022-12-26T02:45:44.193Z,2.47
2022-12-26T02:48:17.356Z,2.60
2022-12-26T02:51:20.844Z,2.53
2022-12-26T02:54:15.789Z,2.63
2022-12-26T02:57:21.233Z,3.30
2022-12-26T03:00:11.555Z,3.23
2022-12-26T03:03:02.306Z,2.83
2022-12-26T03:05:52.784Z,2.77
2022-12-26T03:08:43.442Z,3.10
2022-12-26T03:11:29.238Z,2.43
2022-12-26T03:14:06.250Z,2.30
2022-12-26T03:16:53.014Z,2.20
2022-12-26T03:19:23.148Z,2.60
2022-12-26T03:21:52.992Z,3.00
2022-12-26T03:24:23.403Z,2.75
2022-12-26T03:26:53.981Z,2.13
2022-12-26T03:29:41.507Z,2.80
2022-12-26T03:32:11.603Z,3.80
2022-12-26T03:34:41.924Z,3.50
2022-12-26T03:37:48.982Z,3.37
2022-12-26T03:40:59.695Z,2.50
2022-12-26T03:43:58.185Z,2.57
2022-12-26T03:46:51.808Z,2.77
2022-12-26T03:49:42.720Z,2.20
2022-12-26T03:52:34.725Z,3.10
2022-12-26T03:55:30.259Z,4.13
2022-12-26T03:58:23.071Z,3.20
2022-12-26T04:01:10.075Z,3.53
2022-12-26T04:03:58.912Z,3.10
2022-12-26T04:06:49.024Z,3.17
2022-12-26T04:09:42.259Z,3.03
2022-12-26T04:12:33.443Z,2.90
2022-12-26T04:15:22.183Z,2.60
2022-12-26T04:18:14.460Z,2.85
2022-12-26T04:20:47.760Z,3.40
2022-12-26T04:23:40.709Z,2.95
2022-12-26T04:26:32.620Z,2.27
2022-12-26T04:29:19.744Z,3.20
2022-12-26T04:32:09.964Z,2.80
2022-12-26T04:35:02.888Z,2.87
2022-12-26T04:37:50.886Z,2.47
2022-12-26T04:40:40.326Z,3.60
2022-12-26T04:43:47.106Z,2.97
2022-12-26T04:46:17.817Z,3.07
2022-12-26T04:49:05.902Z,2.57
2022-12-26T04:51:33.587Z,2.43
2022-12-26T04:54:01.273Z,2.70
2022-12-26T04:56:30.741Z,2.63
2022-12-26T04:58:59.553Z,2.63
2022-12-26T05:01:46.495Z,2.90
2022-12-26T05:04:32.542Z,2.60
2022-12-26T05:07:18.892Z,3.00
2022-12-26T05:09:49.524Z,2.90
2022-12-26T05:12:17.147Z,2.77
2022-12-26T05:14:44.845Z,2.90
2022-12-26T05:17:31.909Z,2.53
2022-12-26T05:20:17.251Z,2.50
2022-12-26T05:23:04.104Z,2.20
2022-12-26T05:25:53.295Z,2.20
2022-12-26T05:28:38.939Z,2.30
2022-12-26T05:31:07.656Z,2.50
2022-12-26T05:33:54.261Z,2.47
2022-12-26T05:36:24.309Z,2.37
2022-12-26T05:38:52.063Z,2.73
2022-12-26T05:41:19.782Z,2.73
2022-12-26T05:43:47.461Z,2.40
2022-12-26T05:46:15.636Z,2.70
2022-12-26T05:48:44.633Z,2.57
2022-12-26T05:51:12.356Z,2.67
2022-12-26T05:53:40.030Z,2.83
2022-12-26T05:56:11.103Z,3.17
2022-12-26T05:58:39.213Z,2.77
2022-12-26T06:01:10.081Z,2.93
2022-12-26T06:03:39.259Z,3.03
2022-12-26T06:06:08.660Z,2.80
2022-12-26T06:08:36.772Z,3.50
2022-12-26T06:11:06.343Z,3.67
2022-12-26T06:13:34.649Z,3.50
2022-12-26T06:16:06.462Z,3.90
2022-12-26T06:18:34.443Z,2.80
2022-12-26T06:21:06.597Z,3.37
2022-12-26T06:23:36.684Z,2.60
2022-12-26T06:26:05.484Z,2.57
2022-12-26T06:28:34.890Z,2.73
2022-12-26T06:31:05.184Z,2.43
2022-12-26T06:33:33.063Z,2.30
2022-12-26T06:36:04.993Z,3.40
2022-12-26T06:38:32.855Z,2.20
2022-12-26T06:41:01.870Z,2.60
2022-12-26T06:43:29.508Z,2.40
2022-12-26T06:45:57.641Z,2.63
2022-12-26T06:48:25.733Z,3.33
2022-12-26T06:50:54.416Z,3.00
2022-12-26T06:53:22.569Z,3.43
2022-12-26T06:55:50.478Z,2.57
2022-12-26T06:58:19.706Z,2.50
2022-12-26T07:00:47.529Z,2.17
2022-12-26T07:03:15.277Z,2.27
2022-12-26T07:05:42.975Z,2.43
2022-12-26T07:08:10.959Z,2.07
2022-12-26T07:10:38.716Z,2.20
2022-12-26T07:13:06.373Z,2.40
2022-12-26T07:15:35.411Z,2.40
2022-12-26T07:18:03.067Z,2.80
2022-12-26T07:20:30.861Z,2.30
2022-12-26T07:22:58.633Z,2.40
2022-12-26T07:25:26.318Z,2.47
2022-12-26T07:27:54.762Z,2.77
2022-12-26T07:30:22.544Z,2.30
2022-12-26T07:32:51.607Z,2.70
2022-12-26T07:35:19.336Z,2.80
2022-12-26T07:37:47.103Z,2.27
2022-12-26T07:40:14.945Z,2.93
2022-12-26T07:42:42.624Z,2.27
2022-12-26T07:45:11.091Z,2.20
2022-12-26T07:47:38.794Z,2.87
2022-12-26T07:50:09.053Z,3.17
2022-12-26T07:52:36.776Z,2.37
2022-12-26T07:55:05.852Z,2.73
2022-12-26T07:57:49.653Z,2.67
2022-12-26T08:00:19.029Z,3.00
2022-12-26T08:02:48.703Z,2.60
2022-12-26T08:05:20.742Z,2.30
2022-12-26T08:07:48.762Z,3.10
2022-12-26T08:10:16.698Z,2.90
2022-12-26T08:12:44.386Z,2.80
2022-12-26T08:15:13.714Z,2.67
2022-12-26T08:17:41.463Z,2.57
2022-12-26T08:20:09.965Z,2.27
2022-12-26T08:22:39.031Z,2.43
2022-12-26T08:25:08.384Z,2.73
2022-12-26T08:27:36.291Z,2.90
2022-12-26T08:30:04.897Z,2.90
2022-12-26T08:32:32.653Z,4.40
2022-12-26T08:35:00.345Z,3.73
2022-12-26T08:37:27.986Z,3.50
2022-12-26T08:39:56.996Z,4.03
2022-12-26T08:42:24.769Z,4.33
2022-12-26T08:44:52.611Z,3.67
2022-12-26T08:47:20.320Z,4.80
2022-12-26T08:49:48.130Z,3.60
2022-12-26T08:52:15.971Z,4.77
2022-12-26T08:54:43.774Z,3.93
2022-12-26T08:57:12.960Z,4.10
2022-12-26T08:59:40.780Z,3.30
2022-12-26T09:02:11.447Z,3.00
2022-12-26T09:04:39.880Z,2.80
2022-12-26T09:07:09.457Z,3.10
2022-12-26T09:09:37.365Z,2.97
2022-12-26T09:12:05.567Z,3.20
2022-12-26T09:14:34.963Z,2.87
2022-12-26T09:17:03.014Z,3.30
2022-12-26T09:19:32.425Z,3.57
2022-12-26T09:22:14.569Z,3.80
2022-12-26T09:24:42.356Z,3.30
2022-12-26T09:27:10.342Z,4.00
2022-12-26T09:29:39.742Z,3.90
2022-12-26T09:32:07.513Z,3.20
2022-12-26T09:34:35.176Z,4.25
2022-12-26T09:37:02.889Z,4.00
2022-12-26T09:39:30.637Z,3.87
2022-12-26T09:42:09.458Z,3.00
2022-12-26T09:44:49.400Z,3.70
2022-12-26T09:47:33.965Z,4.77
2022-12-26T09:50:07.682Z,4.10
2022-12-26T09:52:42.699Z,4.20
2022-12-26T09:55:26.984Z,4.77
2022-12-26T09:57:59.734Z,3.83
2022-12-26T10:00:34.384Z,4.10
2022-12-26T10:03:03.178Z,4.37
2022-12-26T10:05:37.371Z,3.57
2022-12-26T10:08:23.445Z,4.03
2022-12-26T10:10:58.218Z,4.10
2022-12-26T10:13:33.329Z,4.07
2022-12-26T10:16:08.770Z,4.00
2022-12-26T10:18:45.938Z,4.00
2022-12-26T10:21:29.986Z,3.70
2022-12-26T10:24:00.596Z,3.60
2022-12-26T10:26:33.688Z,3.75
2022-12-26T10:29:11.749Z,4.00
2022-12-26T10:31:46.037Z,3.67
2022-12-26T10:34:19.543Z,3.35
2022-12-26T10:36:50.351Z,3.45
2022-12-26T10:39:25.607Z,3.50
2022-12-26T10:41:56.950Z,4.20
2022-12-26T10:44:27.839Z,3.00
2022-12-26T10:47:17.574Z,3.83
2022-12-26T10:49:47.050Z,3.03
2022-12-26T10:52:16.798Z,3.60
2022-12-26T10:54:48.160Z,3.17
2022-12-26T10:57:16.380Z,3.15
2022-12-26T10:59:46.078Z,2.78
2022-12-26T11:02:24.374Z,2.77
2022-12-26T11:07:58.197Z,2.27
2022-12-26T11:10:29.439Z,3.17
2022-12-26T11:13:01.076Z,3.40
2022-12-26T11:15:33.065Z,2.37
2022-12-26T11:18:17.897Z,2.30
2022-12-26T11:20:48.383Z,2.60
2022-12-26T11:23:27.148Z,1.90
2022-12-26T11:25:57.169Z,2.17
2022-12-26T11:28:32.498Z,1.98
2022-12-26T11:31:01.770Z,2.15
2022-12-26T11:33:33.789Z,1.60
2022-12-26T11:36:08.902Z,2.87
2022-12-26T11:38:48.116Z,2.60
2022-12-26T11:41:44.655Z,2.20
2022-12-26T11:44:25.764Z,1.50
2022-12-26T11:46:58.062Z,1.60
2022-12-26T11:49:31.099Z,1.50
2022-12-26T11:52:01.909Z,1.60
2022-12-26T11:54:35.971Z,1.80
2022-12-26T11:57:18.966Z,1.37
2022-12-26T11:59:47.768Z,1.42
2022-12-26T12:02:31.108Z,1.35
2022-12-26T12:05:03.547Z,1.53
2022-12-26T12:07:50.788Z,1.20
2022-12-26T12:10:47.681Z,1.30
2022-12-26T12:13:26.365Z,1.50
2022-12-26T12:16:05.638Z,1.97
2022-12-26T12:18:50.656Z,1.90
2022-12-26T12:21:29.971Z,1.53
2022-12-26T12:24:17.219Z,1.67
2022-12-26T12:26:58.741Z,1.20
2022-12-26T12:29:40.117Z,1.27
2022-12-26T12:32:15.961Z,1.80
2022-12-26T12:35:15.136Z,1.60
2022-12-26T12:37:57.228Z,1.35
2022-12-26T12:40:32.643Z,1.30
2022-12-26T12:43:12.930Z,1.30
2022-12-26T12:45:52.165Z,1.70
2022-12-26T12:48:50.538Z,1.52
2022-12-26T12:51:28.262Z,1.37
2022-12-26T12:54:20.598Z,1.30
2022-12-26T12:56:56.235Z,1.23
2022-12-26T12:59:35.739Z,1.00
2022-12-26T13:02:15.382Z,1.20
2022-12-26T13:04:52.318Z,1.37
2022-12-26T13:07:26.746Z,1.30
2022-12-26T13:10:00.330Z,1.23
2022-12-26T13:12:35.122Z,1.95
2022-12-26T13:15:07.947Z,1.40
2022-12-26T13:17:42.052Z,1.25
2022-12-26T13:20:17.085Z,1.10
2022-12-26T13:23:05.814Z,1.70
2022-12-26T13:25:38.220Z,1.93
2022-12-26T13:28:15.089Z,2.00
2022-12-26T13:30:43.468Z,1.30
2022-12-26T13:33:15.926Z,1.37
2022-12-26T13:35:54.789Z,1.00
2022-12-26T13:38:24.260Z,2.75
2022-12-26T13:41:19.689Z,1.50
2022-12-26T13:44:01.029Z,2.60
2022-12-26T13:46:55.654Z,1.08
2022-12-26T13:49:36.035Z,1.53
2022-12-26T13:52:32.612Z,1.60
2022-12-26T13:55:21.893Z,1.40
2022-12-26T13:58:10.382Z,1.27
2022-12-26T14:00:46.266Z,1.35
2022-12-26T14:03:45.959Z,1.10
2022-12-26T14:06:29.983Z,1.00
2022-12-26T14:09:13.243Z,1.60
2022-12-26T14:11:58.493Z,1.55
2022-12-26T14:14:39.678Z,1.20
2022-12-26T14:17:18.590Z,1.10
2022-12-26T14:19:57.017Z,2.30
2022-12-26T14:22:33.346Z,2.30
2022-12-26T14:25:10.546Z,2.08
2022-12-26T14:27:45.725Z,1.80
2022-12-26T14:30:25.748Z,2.10
2022-12-26T14:33:10.213Z,1.50
2022-12-26T14:35:44.963Z,1.42
2022-12-26T14:38:26.400Z,1.60
2022-12-26T14:41:06.782Z,1.97
2022-12-26T14:43:36.779Z,1.48
2022-12-26T14:46:27.823Z,1.55
2022-12-26T14:48:59.122Z,1.80
2022-12-26T14:51:40.937Z,1.40
2022-12-26T14:54:50.854Z,2.67
2022-12-26T14:57:52.538Z,1.80
2022-12-26T15:00:32.636Z,1.15
2022-12-26T15:03:45.650Z,1.60
2022-12-26T15:06:46.086Z,1.38
2022-12-26T15:09:42.545Z,1.35
2022-12-26T15:13:06.788Z,1.70
2022-12-26T15:15:45.572Z,1.70
2022-12-26T15:18:43.995Z,1.77
2022-12-26T15:21:55.724Z,1.58
2022-12-26T15:25:18.199Z,1.23
2022-12-26T15:28:03.048Z,1.02
2022-12-26T15:30:49.768Z,1.30
2022-12-26T15:33:25.582Z,1.65
2022-12-26T15:36:03.893Z,1.40
2022-12-26T15:38:41.329Z,1.30
2022-12-26T15:41:14.984Z,1.40
2022-12-26T15:43:56.743Z,3.83
2022-12-26T15:46:30.786Z,3.20
2022-12-26T15:49:18.884Z,2.15
2022-12-26T15:51:56.484Z,2.50
2022-12-26T15:55:00.324Z,1.83
2022-12-26T15:57:37.846Z,1.95
2022-12-26T16:00:15.154Z,3.22
2022-12-26T16:02:50.957Z,2.22
2022-12-26T16:05:41.622Z,2.25
2022-12-26T16:08:52.615Z,1.60
2022-12-26T16:11:24.702Z,2.55
2022-12-26T16:13:59.595Z,1.70
2022-12-26T16:16:31.403Z,3.25
2022-12-26T16:19:14.974Z,2.38
2022-12-26T16:22:00.893Z,1.38
2022-12-26T16:24:29.490Z,1.63
2022-12-26T16:27:02.588Z,1.52
2022-12-26T16:29:32.420Z,1.55
2022-12-26T16:32:04.651Z,1.70
2022-12-26T16:34:36.160Z,1.40
2022-12-26T16:37:04.614Z,1.00
2022-12-26T16:39:32.657Z,1.40
2022-12-26T16:42:13.274Z,1.35
2022-12-26T16:44:44.399Z,2.20
2022-12-26T16:47:14.540Z,1.75
2022-12-26T16:49:43.452Z,2.05
2022-12-26T16:52:31.673Z,2.03
2022-12-26T16:55:37.197Z,1.85
2022-12-26T16:58:15.818Z,2.03
2022-12-26T17:00:49.847Z,1.95
2022-12-26T17:03:28.687Z,1.60
2022-12-26T17:05:57.324Z,1.60
2022-12-26T17:08:26.112Z,1.83
2022-12-26T17:10:55.608Z,1.73
2022-12-26T17:13:31.218Z,1.52
2022-12-26T17:16:03.158Z,1.42
2022-12-26T17:18:52.583Z,1.40
2022-12-26T17:21:27.104Z,1.45
2022-12-26T17:24:21.187Z,1.35
2022-12-26T17:26:54.809Z,1.40
2022-12-26T17:29:46.851Z,1.40
2022-12-26T17:32:16.961Z,1.40
2022-12-26T17:34:45.110Z,1.47
2022-12-26T17:37:21.805Z,1.63
2022-12-26T17:39:59.046Z,1.55
2022-12-26T17:42:39.264Z,1.43
2022-12-26T17:45:07.849Z,1.75
2022-12-26T17:47:35.674Z,1.88
2022-12-26T17:50:03.482Z,1.90
2022-12-26T17:52:32.069Z,2.10
2022-12-26T17:55:00.342Z,2.30
2022-12-26T17:57:29.829Z,2.35
2022-12-26T17:59:59.339Z,4.20
2022-12-26T18:02:27.218Z,3.80
2022-12-26T18:04:55.893Z,4.13
2022-12-26T18:07:31.058Z,2.75
2022-12-26T18:09:59.768Z,3.38
2022-12-26T18:12:27.473Z,2.25
2022-12-26T18:15:01.401Z,2.33
2022-12-26T18:17:34.239Z,1.75
2022-12-26T18:20:02.510Z,2.17
2022-12-26T18:22:30.699Z,1.55
2022-12-26T18:25:01.446Z,1.67
2022-12-26T18:27:33.186Z,1.80
2022-12-26T18:30:01.785Z,2.35
2022-12-26T18:32:33.013Z,1.60
2022-12-26T18:35:01.690Z,1.60
2022-12-26T18:37:31.298Z,1.60
2022-12-26T18:39:59.700Z,1.30
2022-12-26T18:42:27.483Z,1.38
2022-12-26T18:44:55.729Z,1.60
2022-12-26T18:47:23.915Z,1.50
2022-12-26T18:49:53.714Z,1.35
2022-12-26T18:52:23.374Z,1.58
2022-12-26T18:54:51.099Z,1.65
2022-12-26T18:57:22.268Z,1.20
2022-12-26T18:59:50.095Z,0.90
2022-12-26T19:02:19.238Z,1.20
2022-12-26T19:04:48.359Z,0.85
2022-12-26T19:07:20.285Z,1.10
2022-12-26T19:09:50.120Z,1.10
2022-12-26T19:12:18.559Z,1.70
2022-12-26T19:14:46.397Z,1.15
2022-12-26T19:17:14.802Z,1.13
2022-12-26T19:19:42.597Z,1.17
2022-12-26T19:22:10.924Z,0.88
2022-12-26T19:24:39.970Z,1.20
2022-12-26T19:27:07.658Z,1.70
2022-12-26T19:29:35.415Z,1.85
2022-12-26T19:32:03.122Z,2.17
2022-12-26T19:34:30.843Z,1.05
2022-12-26T19:36:58.472Z,1.50
2022-12-26T19:39:26.133Z,1.73
2022-12-26T19:41:55.380Z,2.03
2022-12-26T19:44:23.082Z,1.83
2022-12-26T19:46:50.801Z,1.67
2022-12-26T19:49:38.466Z,1.00
2022-12-26T19:52:06.156Z,1.30
2022-12-26T19:54:33.800Z,1.13
2022-12-26T19:57:02.759Z,1.10
2022-12-26T19:59:30.534Z,1.15
2022-12-26T20:01:58.398Z,0.93
2022-12-26T20:04:26.172Z,1.00
2022-12-26T20:06:53.890Z,0.90
2022-12-26T20:09:21.579Z,1.10
2022-12-26T20:11:50.360Z,1.15
2022-12-26T20:14:22.228Z,1.10
2022-12-26T20:17:08.958Z,1.08
2022-12-26T20:19:37.840Z,1.20
2022-12-26T20:22:06.426Z,1.10
2022-12-26T20:24:34.614Z,0.90
2022-12-26T20:27:03.135Z,1.33
2022-12-26T20:29:32.215Z,1.00
2022-12-26T20:31:59.853Z,1.10
2022-12-26T20:34:27.867Z,1.10
2022-12-26T20:36:55.606Z,0.90
2022-12-26T20:39:23.399Z,0.93
2022-12-26T20:41:51.153Z,1.10
2022-12-26T20:44:19.079Z,1.20
2022-12-26T20:46:48.076Z,1.00
2022-12-26T20:49:15.788Z,0.90
2022-12-26T20:51:45.551Z,1.27
2022-12-26T20:54:15.572Z,1.08
2022-12-26T20:56:43.818Z,0.80
2022-12-26T20:59:11.958Z,1.17
2022-12-26T21:01:40.368Z,1.20
2022-12-26T21:04:11.608Z,1.20
2022-12-26T21:06:40.827Z,1.15
2022-12-26T21:09:08.472Z,1.92
2022-12-26T21:11:38.583Z,1.58
2022-12-26T21:14:08.884Z,1.60
2022-12-26T21:16:39.068Z,1.40
2022-12-26T21:19:12.477Z,1.40
2022-12-26T21:21:45.902Z,1.65
2022-12-26T21:24:15.939Z,1.48
2022-12-26T21:26:44.587Z,1.33
2022-12-26T21:29:14.807Z,2.05
2022-12-26T21:31:42.943Z,1.27
2022-12-26T21:34:13.427Z,1.60
2022-12-26T21:36:41.534Z,1.40
2022-12-26T21:39:11.437Z,1.30
2022-12-26T21:41:39.097Z,1.48
2022-12-26T21:44:06.796Z,1.52
2022-12-26T21:46:34.499Z,1.58
2022-12-26T21:49:02.218Z,1.40
2022-12-26T21:51:31.055Z,1.70
2022-12-26T21:54:22.822Z,1.75
2022-12-26T21:56:51.126Z,1.35
2022-12-26T21:59:32.996Z,2.20
2022-12-26T22:02:01.021Z,1.40
2022-12-26T22:04:29.426Z,2.15
2022-12-26T22:06:57.420Z,1.60
2022-12-26T22:09:25.370Z,1.90
2022-12-26T22:12:11.795Z,1.50
2022-12-26T22:14:39.409Z,2.35
2022-12-26T22:17:07.008Z,2.00
2022-12-26T22:19:34.717Z,1.30
2022-12-26T22:22:02.459Z,1.48
2022-12-26T22:24:30.198Z,1.65
2022-12-26T22:26:59.243Z,1.40
2022-12-26T22:29:26.913Z,2.03
2022-12-26T22:31:58.352Z,1.80
2022-12-26T22:34:26.555Z,2.60
2022-12-26T22:36:55.183Z,3.17
2022-12-26T22:39:23.187Z,2.58
2022-12-26T22:41:50.982Z,3.10
2022-12-26T22:44:20.335Z,1.88
2022-12-26T22:46:48.129Z,2.83
2022-12-26T22:49:15.895Z,2.28
2022-12-26T22:51:43.652Z,1.95
2022-12-26T22:54:11.357Z,2.42
2022-12-26T22:56:39.135Z,2.03
2022-12-26T22:59:06.874Z,1.50
2022-12-26T23:01:36.146Z,2.00
2022-12-26T23:04:04.768Z,1.80
2022-12-26T23:06:34.952Z,1.25
2022-12-26T23:09:05.382Z,1.80
2022-12-26T23:11:35.765Z,1.40
2022-12-26T23:14:05.975Z,1.73
2022-12-26T23:16:39.593Z,1.30
2022-12-26T23:19:32.296Z,1.77
2022-12-26T23:22:01.240Z,1.55
2022-12-26T23:24:31.990Z,1.98
2022-12-26T23:27:21.993Z,1.75
2022-12-26T23:30:08.618Z,1.23
2022-12-26T23:32:38.343Z,1.35
2022-12-26T23:35:07.215Z,1.35
2022-12-26T23:37:34.985Z,1.13
2022-12-26T23:40:03.063Z,1.33
2022-12-26T23:42:30.982Z,1.23
2022-12-26T23:44:58.903Z,1.40
2022-12-26T23:47:26.732Z,1.35
2022-12-26T23:49:55.893Z,1.63
2022-12-26T23:52:29.893Z,1.10
2022-12-26T23:54:58.230Z,1.40
2022-12-26T23:57:26.355Z,0.95
2022-12-26T23:59:54.315Z,1.20
